createdAt,value
2023-12-09T00:03:35.662Z,12.52
2023-12-09T00:07:40.594Z,12.40
2023-12-09T00:11:43.658Z,11.70
2023-12-09T00:15:47.141Z,12.35
2023-12-09T00:19:50.273Z,12.52
2023-12-09T00:23:54.714Z,12.38
2023-12-09T00:27:57.781Z,13.27
2023-12-09T00:32:00.783Z,12.23
2023-12-09T00:36:03.986Z,13.32
2023-12-09T00:40:09.664Z,13.02
2023-12-09T00:44:12.799Z,11.63
2023-12-09T00:48:15.964Z,11.95
2023-12-09T00:52:19.150Z,11.13
2023-12-09T00:56:33.688Z,12.10
2023-12-09T01:00:38.474Z,12.55
2023-12-09T01:04:41.655Z,12.02
2023-12-09T01:08:44.988Z,12.00
2023-12-09T01:12:49.608Z,12.43
2023-12-09T01:16:52.632Z,12.43
2023-12-09T01:20:55.746Z,11.38
2023-12-09T01:24:58.868Z,12.20
2023-12-09T01:29:04.526Z,11.30
2023-12-09T01:33:07.956Z,12.02
2023-12-09T01:37:11.252Z,11.95
2023-12-09T01:41:14.376Z,11.90
2023-12-09T01:45:18.978Z,11.68
2023-12-09T01:49:22.465Z,11.63
2023-12-09T01:53:25.820Z,12.52
2023-12-09T01:57:29.974Z,12.30
2023-12-09T02:01:37.550Z,12.45
2023-12-09T02:05:41.613Z,11.68
2023-12-09T02:09:45.946Z,12.10
2023-12-09T02:13:58.274Z,12.63
2023-12-09T02:18:06.008Z,12.13
2023-12-09T02:22:10.798Z,12.02
2023-12-09T02:26:19.872Z,11.60
2023-12-09T02:30:30.479Z,12.37
2023-12-09T02:34:38.534Z,11.88
2023-12-09T02:38:43.783Z,12.10
2023-12-09T02:42:50.496Z,12.75
2023-12-09T02:46:57.126Z,13.30
2023-12-09T02:51:00.247Z,12.43
2023-12-09T02:55:06.159Z,12.43
2023-12-09T02:59:10.634Z,12.18
2023-12-09T03:03:13.831Z,12.38
2023-12-09T03:07:21.437Z,12.50
2023-12-09T03:11:24.686Z,12.20
2023-12-09T03:15:29.243Z,13.13
2023-12-09T03:19:32.427Z,13.43
2023-12-09T03:23:35.595Z,12.60
2023-12-09T03:27:38.762Z,13.05
2023-12-09T03:31:43.381Z,12.98
2023-12-09T03:35:46.389Z,12.52
2023-12-09T03:39:49.458Z,12.82
2023-12-09T03:43:52.559Z,12.88
2023-12-09T03:47:57.347Z,12.27
2023-12-09T03:52:00.581Z,11.40
2023-12-09T03:56:04.689Z,11.38
2023-12-09T04:00:10.779Z,11.75
2023-12-09T04:04:15.287Z,9.60
2023-12-09T04:08:18.446Z,10.68
2023-12-09T04:12:21.551Z,10.82
2023-12-09T04:16:24.626Z,11.15
2023-12-09T04:20:29.386Z,10.52
2023-12-09T04:24:32.937Z,12.02
2023-12-09T04:28:36.169Z,11.40
2023-12-09T04:32:39.315Z,11.13
2023-12-09T04:36:43.793Z,11.75
2023-12-09T04:40:46.816Z,12.55
2023-12-09T04:44:49.884Z,10.85
2023-12-09T04:48:52.968Z,11.38
2023-12-09T04:52:57.462Z,11.88
2023-12-09T04:57:00.576Z,11.20
2023-12-09T05:01:06.191Z,11.50
2023-12-09T05:05:09.718Z,10.20
2023-12-09T05:09:15.222Z,9.77
2023-12-09T05:13:18.340Z,9.77
2023-12-09T05:17:21.357Z,10.15
2023-12-09T05:21:35.040Z,10.32
2023-12-09T05:25:40.929Z,10.43
2023-12-09T05:29:44.770Z,9.20
2023-12-09T05:33:47.979Z,10.52
2023-12-09T05:37:51.158Z,10.45
2023-12-09T05:41:55.608Z,9.85
2023-12-09T05:45:59.112Z,11.00
2023-12-09T05:50:02.930Z,11.13
2023-12-09T05:54:06.459Z,10.25
2023-12-09T05:58:10.980Z,10.68
2023-12-09T06:02:14.329Z,10.30
2023-12-09T06:06:17.845Z,10.43
2023-12-09T06:10:21.126Z,10.63
2023-12-09T06:14:25.560Z,10.02
2023-12-09T06:18:28.670Z,10.57
2023-12-09T06:22:31.853Z,10.85
2023-12-09T06:26:34.924Z,10.57
2023-12-09T06:30:39.302Z,11.27
2023-12-09T06:34:42.567Z,10.90
2023-12-09T06:38:45.665Z,9.95
2023-12-09T06:42:48.771Z,10.73
2023-12-09T06:46:53.202Z,10.70
2023-12-09T06:50:56.282Z,10.00
2023-12-09T06:54:59.363Z,11.10
2023-12-09T06:59:02.336Z,11.10
2023-12-09T07:03:07.174Z,11.73
2023-12-09T07:07:21.857Z,11.02
2023-12-09T07:11:25.861Z,11.35
2023-12-09T07:15:29.010Z,10.95
2023-12-09T07:19:33.622Z,11.63
2023-12-09T07:23:37.193Z,11.00
2023-12-09T07:27:40.250Z,11.07
2023-12-09T07:31:43.465Z,9.90
2023-12-09T07:35:47.857Z,11.45
2023-12-09T07:39:51.317Z,12.23
2023-12-09T07:43:54.495Z,12.50
2023-12-09T07:47:57.778Z,14.45
2023-12-09T07:52:02.379Z,11.63
2023-12-09T07:56:07.323Z,12.15
2023-12-09T08:00:12.219Z,11.43
2023-12-09T08:04:16.220Z,11.60
2023-12-09T08:08:20.789Z,9.93
2023-12-09T08:12:23.990Z,10.40
2023-12-09T08:16:27.133Z,10.43
2023-12-09T08:20:30.171Z,9.65
2023-12-09T08:24:34.945Z,9.77
2023-12-09T08:28:38.113Z,10.40
2023-12-09T08:32:42.730Z,11.73
2023-12-09T08:37:12.114Z,9.55
2023-12-09T10:23:34.633Z,9.85
2023-12-09T10:55:09.784Z,9.13
2023-12-09T10:59:27.841Z,7.97
2023-12-09T11:03:48.493Z,8.55
2023-12-09T11:13:08.144Z,24.50
2023-12-09T11:17:34.716Z,7.93
2023-12-09T11:21:54.250Z,8.45
2023-12-09T11:26:15.682Z,8.48
2023-12-09T11:30:34.794Z,8.95
2023-12-09T11:44:29.641Z,7.93
2023-12-09T12:00:15.068Z,7.32
2023-12-09T12:05:17.008Z,7.75
2023-12-09T12:09:21.644Z,18.42
2023-12-09T12:32:09.171Z,6.07
2023-12-09T12:36:59.858Z,6.47
2023-12-09T13:22:46.085Z,6.15
2023-12-09T13:27:04.451Z,6.22
2023-12-09T13:31:26.485Z,5.30
2023-12-09T13:35:38.131Z,6.88
2023-12-09T13:40:26.158Z,3.80
2023-12-09T13:44:30.759Z,4.00
2023-12-09T13:48:34.377Z,2.78
2023-12-09T13:52:38.041Z,3.50
2023-12-09T13:56:41.402Z,2.50
2023-12-09T14:00:49.663Z,2.47
2023-12-09T14:04:53.731Z,21.15
2023-12-09T14:09:13.195Z,5.68
2023-12-09T14:13:16.538Z,4.70
2023-12-09T14:17:21.080Z,5.80
2023-12-09T14:39:19.904Z,7.38
2023-12-09T14:43:27.478Z,19.88
2023-12-09T14:47:30.879Z,5.13
2023-12-09T14:51:40.952Z,4.15
2023-12-09T15:07:55.184Z,2.73
2023-12-09T15:12:01.912Z,2.15
2023-12-09T15:16:07.642Z,2.20
2023-12-09T15:20:11.554Z,4.93
2023-12-09T15:24:16.106Z,2.17
2023-12-09T15:28:21.416Z,1.85
2023-12-09T15:32:26.287Z,2.00
2023-12-09T15:36:29.803Z,1.60
2023-12-09T15:40:34.209Z,2.45
2023-12-09T15:44:37.298Z,2.08
2023-12-09T15:48:41.220Z,2.00
2023-12-09T15:52:45.333Z,1.92
2023-12-09T15:56:50.169Z,1.73
2023-12-09T16:00:53.518Z,1.60
2023-12-09T16:04:56.718Z,1.30
2023-12-09T16:08:59.812Z,2.65
2023-12-09T16:13:04.802Z,1.40
2023-12-09T16:17:08.020Z,1.55
2023-12-09T16:21:11.122Z,1.50
2023-12-09T16:25:14.351Z,1.60
2023-12-09T16:29:18.775Z,1.40
2023-12-09T16:33:21.996Z,1.98
2023-12-09T16:37:25.723Z,2.00
2023-12-09T16:41:28.750Z,1.60
2023-12-09T16:45:33.271Z,1.40
2023-12-09T16:49:36.628Z,1.45
2023-12-09T16:53:39.691Z,2.10
2023-12-09T16:57:43.129Z,1.88
2023-12-09T17:01:48.272Z,2.38
2023-12-09T17:05:51.413Z,2.38
2023-12-09T17:09:54.447Z,2.65
2023-12-09T17:13:57.507Z,2.42
2023-12-09T17:18:02.323Z,1.83
2023-12-09T17:22:05.974Z,3.33
2023-12-09T17:26:09.522Z,2.88
2023-12-09T17:30:16.041Z,1.67
2023-12-09T17:34:20.726Z,1.65
2023-12-09T17:38:23.930Z,1.40
2023-12-09T17:42:27.212Z,1.77
2023-12-09T17:46:30.458Z,2.55
2023-12-09T17:50:34.865Z,1.70
2023-12-09T17:54:37.988Z,2.20
2023-12-09T17:58:43.322Z,2.22
2023-12-09T18:02:46.657Z,2.40
2023-12-09T18:06:51.226Z,2.00
2023-12-09T18:10:54.304Z,2.00
2023-12-09T18:14:57.312Z,1.65
2023-12-09T18:19:00.458Z,1.83
2023-12-09T18:23:04.910Z,2.22
2023-12-09T18:27:09.311Z,2.97
2023-12-09T18:31:12.432Z,6.13
2023-12-09T18:35:16.647Z,3.80
2023-12-09T18:39:22.687Z,3.53
2023-12-09T18:43:25.928Z,2.67
2023-12-09T18:47:30.634Z,2.83
2023-12-09T18:51:34.549Z,2.85
2023-12-09T18:55:39.000Z,5.68
2023-12-09T18:59:43.093Z,4.28
2023-12-09T19:03:46.258Z,3.70
2023-12-09T19:07:49.375Z,3.42
2023-12-09T19:11:53.993Z,5.30
2023-12-09T19:15:57.040Z,5.45
2023-12-09T19:20:00.515Z,5.15
2023-12-09T19:24:03.716Z,3.28
2023-12-09T19:28:10.948Z,5.10
2023-12-09T19:32:15.892Z,4.75
2023-12-09T19:36:20.996Z,8.32
2023-12-09T19:40:24.179Z,5.75
2023-12-09T19:44:37.560Z,2.78
2023-12-09T19:48:40.777Z,7.40
2023-12-09T19:52:44.407Z,3.53
2023-12-09T19:56:47.484Z,3.67
2023-12-09T20:00:55.853Z,4.47
2023-12-09T20:04:59.093Z,3.13
2023-12-09T20:13:28.972Z,1.75
2023-12-09T20:17:36.393Z,2.13
2023-12-09T20:21:39.476Z,3.00
2023-12-09T20:25:42.714Z,0.93
2023-12-09T20:29:47.458Z,1.80
2023-12-09T20:33:52.109Z,1.50
2023-12-09T20:37:55.393Z,4.15
2023-12-09T20:41:58.484Z,1.30
2023-12-09T20:46:02.364Z,2.40
2023-12-09T20:50:08.410Z,1.30
2023-12-09T20:54:11.885Z,2.40
2023-12-09T20:58:15.496Z,1.58
2023-12-09T21:02:18.809Z,1.15
2023-12-09T21:06:23.306Z,1.50
2023-12-09T21:10:27.404Z,2.53
2023-12-09T21:14:30.458Z,1.75
2023-12-09T21:18:33.567Z,4.55
2023-12-09T21:22:38.965Z,3.72
2023-12-09T21:26:42.046Z,2.70
2023-12-09T21:30:45.164Z,3.55
2023-12-09T21:34:49.926Z,2.35
2023-12-09T21:38:54.623Z,1.80
2023-12-09T21:42:57.751Z,1.73
2023-12-09T21:47:00.885Z,1.40
2023-12-09T21:51:06.511Z,1.30
2023-12-09T21:55:12.715Z,1.13
2023-12-09T21:59:15.725Z,1.02
2023-12-09T22:03:18.842Z,0.60
2023-12-09T22:07:24.588Z,0.80
2023-12-09T22:11:29.063Z,0.90
2023-12-09T22:15:32.127Z,0.90
2023-12-09T22:19:35.239Z,1.05
2023-12-09T22:23:43.578Z,0.95
2023-12-09T22:27:48.041Z,1.00
2023-12-09T22:31:51.095Z,1.20
2023-12-09T22:35:56.030Z,0.90
2023-12-09T22:39:59.760Z,0.75
2023-12-09T22:44:04.275Z,0.70
2023-12-09T22:48:14.918Z,1.15
2023-12-09T22:52:18.214Z,1.15
2023-12-09T22:56:22.268Z,1.15
2023-12-09T23:00:33.520Z,2.60
2023-12-09T23:04:38.586Z,1.33
2023-12-09T23:08:45.166Z,1.40
2023-12-09T23:12:48.430Z,1.90
2023-12-09T23:16:55.187Z,7.55
2023-12-09T23:20:58.711Z,2.10
2023-12-09T23:25:01.794Z,5.88
2023-12-09T23:29:10.334Z,3.85
2023-12-09T23:33:14.942Z,5.18
2023-12-09T23:37:18.052Z,1.92
2023-12-09T23:41:22.660Z,4.18
2023-12-09T23:45:25.805Z,2.15
2023-12-09T23:49:30.368Z,3.20
2023-12-09T23:53:33.486Z,3.83
2023-12-09T23:57:39.727Z,2.10
